sensor_id;sensor_type;location;lat;lon;timestamp;temperature;humidity
19586;DHT22;9939;49.246;9.106;2024-01-30T00:00:26;0.70;99.90
19586;DHT22;9939;49.246;9.106;2024-01-30T00:02:53;0.70;99.90
19586;DHT22;9939;49.246;9.106;2024-01-30T00:05:20;0.70;99.90
19586;DHT22;9939;49.246;9.106;2024-01-30T00:07:47;0.70;99.90
19586;DHT22;9939;49.246;9.106;2024-01-30T00:10:14;0.60;99.90
19586;DHT22;9939;49.246;9.106;2024-01-30T00:12:41;0.60;99.90
19586;DHT22;9939;49.246;9.106;2024-01-30T00:15:08;0.70;99.90
19586;DHT22;9939;49.246;9.106;2024-01-30T00:17:37;0.60;99.90
19586;DHT22;9939;49.246;9.106;2024-01-30T00:20:04;0.60;99.90
19586;DHT22;9939;49.246;9.106;2024-01-30T00:22:35;0.70;99.90
19586;DHT22;9939;49.246;9.106;2024-01-30T00:25:03;0.70;99.90
19586;DHT22;9939;49.246;9.106;2024-01-30T00:27:29;0.70;99.90
19586;DHT22;9939;49.246;9.106;2024-01-30T00:29:56;0.70;99.90
19586;DHT22;9939;49.246;9.106;2024-01-30T00:32:23;0.70;99.90
19586;DHT22;9939;49.246;9.106;2024-01-30T00:34:50;0.70;99.90
19586;DHT22;9939;49.246;9.106;2024-01-30T00:37:17;1.00;99.90
19586;DHT22;9939;49.246;9.106;2024-01-30T00:39:44;0.80;99.90
19586;DHT22;9939;49.246;9.106;2024-01-30T00:42:11;0.90;99.90
19586;DHT22;9939;49.246;9.106;2024-01-30T00:44:38;0.90;99.90
19586;DHT22;9939;49.246;9.106;2024-01-30T00:47:05;0.90;99.90
19586;DHT22;9939;49.246;9.106;2024-01-30T00:49:32;0.90;99.90
19586;DHT22;9939;49.246;9.106;2024-01-30T00:52:00;0.90;99.90
19586;DHT22;9939;49.246;9.106;2024-01-30T00:54:27;0.90;99.90
19586;DHT22;9939;49.246;9.106;2024-01-30T00:56:54;0.80;99.90
19586;DHT22;9939;49.246;9.106;2024-01-30T00:59:21;0.80;99.90
19586;DHT22;9939;49.246;9.106;2024-01-30T01:01:47;0.70;99.90
19586;DHT22;9939;49.246;9.106;2024-01-30T01:04:14;0.60;99.90
19586;DHT22;9939;49.246;9.106;2024-01-30T01:06:41;0.70;99.90
19586;DHT22;9939;49.246;9.106;2024-01-30T01:09:11;0.60;99.90
19586;DHT22;9939;49.246;9.106;2024-01-30T01:11:39;0.50;99.90
19586;DHT22;9939;49.246;9.106;2024-01-30T01:14:06;0.50;99.90
19586;DHT22;9939;49.246;9.106;2024-01-30T01:16:34;0.60;99.90
19586;DHT22;9939;49.246;9.106;2024-01-30T01:19:01;0.50;99.90
19586;DHT22;9939;49.246;9.106;2024-01-30T01:21:28;0.50;99.90
19586;DHT22;9939;49.246;9.106;2024-01-30T01:23:55;0.50;99.90
19586;DHT22;9939;49.246;9.106;2024-01-30T01:26:23;0.40;99.90
19586;DHT22;9939;49.246;9.106;2024-01-30T01:28:50;0.40;99.90
19586;DHT22;9939;49.246;9.106;2024-01-30T01:31:17;0.50;99.90
19586;DHT22;9939;49.246;9.106;2024-01-30T01:33:45;0.50;99.90
19586;DHT22;9939;49.246;9.106;2024-01-30T01:36:13;0.50;99.90
19586;DHT22;9939;49.246;9.106;2024-01-30T01:38:40;0.60;99.90
19586;DHT22;9939;49.246;9.106;2024-01-30T01:41:07;0.40;99.90
19586;DHT22;9939;49.246;9.106;2024-01-30T01:43:34;0.30;99.90
19586;DHT22;9939;49.246;9.106;2024-01-30T01:46:01;0.40;99.90
19586;DHT22;9939;49.246;9.106;2024-01-30T01:48:28;0.30;99.90
19586;DHT22;9939;49.246;9.106;2024-01-30T01:50:56;0.40;99.90
19586;DHT22;9939;49.246;9.106;2024-01-30T01:53:23;0.40;99.90
19586;DHT22;9939;49.246;9.106;2024-01-30T01:55:51;0.40;99.90
19586;DHT22;9939;49.246;9.106;2024-01-30T01:58:19;0.30;99.90
19586;DHT22;9939;49.246;9.106;2024-01-30T02:00:47;0.30;99.90
19586;DHT22;9939;49.246;9.106;2024-01-30T02:03:16;0.20;99.90
19586;DHT22;9939;49.246;9.106;2024-01-30T02:05:45;0.20;99.90
19586;DHT22;9939;49.246;9.106;2024-01-30T02:08:12;0.20;99.90
19586;DHT22;9939;49.246;9.106;2024-01-30T02:10:39;0.20;99.90
19586;DHT22;9939;49.246;9.106;2024-01-30T02:13:06;0.20;99.90
19586;DHT22;9939;49.246;9.106;2024-01-30T02:15:33;0.20;99.90
19586;DHT22;9939;49.246;9.106;2024-01-30T02:18:00;0.10;99.90
19586;DHT22;9939;49.246;9.106;2024-01-30T02:20:29;0.10;99.90
19586;DHT22;9939;49.246;9.106;2024-01-30T02:22:58;0.10;99.90
19586;DHT22;9939;49.246;9.106;2024-01-30T02:25:35;0.10;99.90
19586;DHT22;9939;49.246;9.106;2024-01-30T02:28:02;0.10;99.90
19586;DHT22;9939;49.246;9.106;2024-01-30T02:30:29;0.00;99.90
19586;DHT22;9939;49.246;9.106;2024-01-30T02:32:56;0.00;99.90
19586;DHT22;9939;49.246;9.106;2024-01-30T02:35:23;0.00;99.90
19586;DHT22;9939;49.246;9.106;2024-01-30T02:37:50;0.00;99.90
19586;DHT22;9939;49.246;9.106;2024-01-30T02:40:17;0.00;99.90
19586;DHT22;9939;49.246;9.106;2024-01-30T02:42:44;-0.10;99.90
19586;DHT22;9939;49.246;9.106;2024-01-30T02:45:11;-0.10;99.90
19586;DHT22;9939;49.246;9.106;2024-01-30T02:47:39;-0.10;99.90
19586;DHT22;9939;49.246;9.106;2024-01-30T02:50:06;-0.10;99.90
19586;DHT22;9939;49.246;9.106;2024-01-30T02:52:33;-0.10;99.90
19586;DHT22;9939;49.246;9.106;2024-01-30T02:55:00;-0.20;99.90
19586;DHT22;9939;49.246;9.106;2024-01-30T02:57:28;-0.20;99.90
19586;DHT22;9939;49.246;9.106;2024-01-30T02:59:55;-0.20;99.90
19586;DHT22;9939;49.246;9.106;2024-01-30T03:02:22;-0.10;99.90
19586;DHT22;9939;49.246;9.106;2024-01-30T03:04:49;-0.10;99.90
19586;DHT22;9939;49.246;9.106;2024-01-30T03:07:16;-0.20;99.90
19586;DHT22;9939;49.246;9.106;2024-01-30T03:09:43;-0.20;99.90
19586;DHT22;9939;49.246;9.106;2024-01-30T03:12:10;-0.20;99.90
19586;DHT22;9939;49.246;9.106;2024-01-30T03:14:37;-0.10;99.90
19586;DHT22;9939;49.246;9.106;2024-01-30T03:17:04;-0.20;99.90
19586;DHT22;9939;49.246;9.106;2024-01-30T03:19:31;-0.10;99.90
19586;DHT22;9939;49.246;9.106;2024-01-30T03:21:59;-0.20;99.90
19586;DHT22;9939;49.246;9.106;2024-01-30T03:24:26;-0.30;99.90
19586;DHT22;9939;49.246;9.106;2024-01-30T03:26:53;-0.20;99.90
19586;DHT22;9939;49.246;9.106;2024-01-30T03:29:20;-0.20;99.90
19586;DHT22;9939;49.246;9.106;2024-01-30T03:31:47;-0.10;99.90
19586;DHT22;9939;49.246;9.106;2024-01-30T03:34:14;-0.10;99.90
19586;DHT22;9939;49.246;9.106;2024-01-30T03:36:41;-0.20;99.90
19586;DHT22;9939;49.246;9.106;2024-01-30T03:39:08;-0.30;99.90
19586;DHT22;9939;49.246;9.106;2024-01-30T03:41:35;-0.20;99.90
19586;DHT22;9939;49.246;9.106;2024-01-30T03:44:02;-0.10;99.90
19586;DHT22;9939;49.246;9.106;2024-01-30T03:46:29;-0.10;99.90
19586;DHT22;9939;49.246;9.106;2024-01-30T03:48:56;0.10;99.90
19586;DHT22;9939;49.246;9.106;2024-01-30T03:51:23;-0.10;99.90
19586;DHT22;9939;49.246;9.106;2024-01-30T03:53:50;-0.10;99.90
19586;DHT22;9939;49.246;9.106;2024-01-30T03:56:16;-0.20;99.90
19586;DHT22;9939;49.246;9.106;2024-01-30T03:58:43;-0.30;99.90
19586;DHT22;9939;49.246;9.106;2024-01-30T04:01:16;-0.30;99.90
19586;DHT22;9939;49.246;9.106;2024-01-30T04:03:43;-0.40;99.90
19586;DHT22;9939;49.246;9.106;2024-01-30T04:06:11;-0.40;99.90
19586;DHT22;9939;49.246;9.106;2024-01-30T04:08:38;-0.40;99.90
19586;DHT22;9939;49.246;9.106;2024-01-30T04:11:06;-0.30;99.90
19586;DHT22;9939;49.246;9.106;2024-01-30T04:13:33;-0.30;99.90
19586;DHT22;9939;49.246;9.106;2024-01-30T04:16:00;-0.30;99.90
19586;DHT22;9939;49.246;9.106;2024-01-30T04:18:30;-0.30;99.90
19586;DHT22;9939;49.246;9.106;2024-01-30T04:20:57;-0.30;99.90
19586;DHT22;9939;49.246;9.106;2024-01-30T04:23:24;-0.40;99.90
19586;DHT22;9939;49.246;9.106;2024-01-30T04:25:51;-0.30;99.90
19586;DHT22;9939;49.246;9.106;2024-01-30T04:28:18;-0.30;99.90
19586;DHT22;9939;49.246;9.106;2024-01-30T04:30:45;-0.40;99.90
19586;DHT22;9939;49.246;9.106;2024-01-30T04:33:12;-0.40;99.90
19586;DHT22;9939;49.246;9.106;2024-01-30T04:35:39;-0.40;99.90
19586;DHT22;9939;49.246;9.106;2024-01-30T04:38:06;-0.30;99.90
19586;DHT22;9939;49.246;9.106;2024-01-30T04:40:32;-0.40;99.90
19586;DHT22;9939;49.246;9.106;2024-01-30T04:43:00;-0.20;99.90
19586;DHT22;9939;49.246;9.106;2024-01-30T04:45:27;-0.20;99.90
19586;DHT22;9939;49.246;9.106;2024-01-30T04:47:53;-0.20;99.90
19586;DHT22;9939;49.246;9.106;2024-01-30T04:50:20;-0.10;99.90
19586;DHT22;9939;49.246;9.106;2024-01-30T04:52:47;-0.20;99.90
19586;DHT22;9939;49.246;9.106;2024-01-30T04:55:14;-0.20;99.90
19586;DHT22;9939;49.246;9.106;2024-01-30T04:57:41;-0.10;99.90
19586;DHT22;9939;49.246;9.106;2024-01-30T05:00:08;-0.20;99.90
19586;DHT22;9939;49.246;9.106;2024-01-30T05:02:35;-0.20;99.90
19586;DHT22;9939;49.246;9.106;2024-01-30T05:05:02;-0.30;99.90
19586;DHT22;9939;49.246;9.106;2024-01-30T05:07:30;-0.30;99.90
19586;DHT22;9939;49.246;9.106;2024-01-30T05:09:57;-0.30;99.90
19586;DHT22;9939;49.246;9.106;2024-01-30T05:12:26;-0.30;99.90
19586;DHT22;9939;49.246;9.106;2024-01-30T05:14:53;-0.30;99.90
19586;DHT22;9939;49.246;9.106;2024-01-30T05:17:20;-0.40;99.90
19586;DHT22;9939;49.246;9.106;2024-01-30T05:19:47;-0.30;99.90
19586;DHT22;9939;49.246;9.106;2024-01-30T05:22:14;-0.30;99.90
19586;DHT22;9939;49.246;9.106;2024-01-30T05:24:42;-0.40;99.90
19586;DHT22;9939;49.246;9.106;2024-01-30T05:27:09;-0.50;99.90
19586;DHT22;9939;49.246;9.106;2024-01-30T05:29:36;-0.50;99.90
19586;DHT22;9939;49.246;9.106;2024-01-30T05:32:04;-0.50;99.90
19586;DHT22;9939;49.246;9.106;2024-01-30T05:34:32;-0.30;99.90
19586;DHT22;9939;49.246;9.106;2024-01-30T05:36:59;-0.30;99.90
19586;DHT22;9939;49.246;9.106;2024-01-30T05:39:26;-0.40;99.90
19586;DHT22;9939;49.246;9.106;2024-01-30T05:41:53;-0.50;99.90
19586;DHT22;9939;49.246;9.106;2024-01-30T05:44:20;-0.50;99.90
19586;DHT22;9939;49.246;9.106;2024-01-30T05:46:46;-0.50;99.90
19586;DHT22;9939;49.246;9.106;2024-01-30T05:49:13;-0.50;99.90
19586;DHT22;9939;49.246;9.106;2024-01-30T05:51:40;-0.50;99.90
19586;DHT22;9939;49.246;9.106;2024-01-30T05:54:07;-0.30;99.90
19586;DHT22;9939;49.246;9.106;2024-01-30T05:56:34;-0.30;99.90
19586;DHT22;9939;49.246;9.106;2024-01-30T05:59:01;-0.40;99.90
19586;DHT22;9939;49.246;9.106;2024-01-30T06:01:28;-0.40;99.90
19586;DHT22;9939;49.246;9.106;2024-01-30T06:03:56;-0.50;99.90
19586;DHT22;9939;49.246;9.106;2024-01-30T06:06:23;-0.40;99.90
19586;DHT22;9939;49.246;9.106;2024-01-30T06:08:50;-0.50;99.90
19586;DHT22;9939;49.246;9.106;2024-01-30T06:11:16;-0.20;99.90
19586;DHT22;9939;49.246;9.106;2024-01-30T06:13:43;-0.20;99.90
19586;DHT22;9939;49.246;9.106;2024-01-30T06:16:10;-0.40;99.90
19586;DHT22;9939;49.246;9.106;2024-01-30T06:18:38;-0.30;99.90
19586;DHT22;9939;49.246;9.106;2024-01-30T06:21:05;-0.40;99.90
19586;DHT22;9939;49.246;9.106;2024-01-30T06:23:34;-0.50;99.90
19586;DHT22;9939;49.246;9.106;2024-01-30T06:26:01;-0.50;99.90
19586;DHT22;9939;49.246;9.106;2024-01-30T06:28:27;-0.60;99.90
19586;DHT22;9939;49.246;9.106;2024-01-30T06:30:54;-0.60;99.90
19586;DHT22;9939;49.246;9.106;2024-01-30T06:33:21;-0.40;99.90
19586;DHT22;9939;49.246;9.106;2024-01-30T06:35:48;-0.40;99.90
19586;DHT22;9939;49.246;9.106;2024-01-30T06:38:15;-0.50;99.90
19586;DHT22;9939;49.246;9.106;2024-01-30T06:40:42;-0.60;99.90
19586;DHT22;9939;49.246;9.106;2024-01-30T06:43:09;-0.60;99.90
19586;DHT22;9939;49.246;9.106;2024-01-30T06:45:36;-0.60;99.90
19586;DHT22;9939;49.246;9.106;2024-01-30T06:52:09;-0.50;99.90
19586;DHT22;9939;49.246;9.106;2024-01-30T06:54:36;-0.50;99.90
19586;DHT22;9939;49.246;9.106;2024-01-30T06:57:03;-0.50;99.90
19586;DHT22;9939;49.246;9.106;2024-01-30T06:59:31;-0.40;99.90
19586;DHT22;9939;49.246;9.106;2024-01-30T07:01:57;-0.50;99.90
19586;DHT22;9939;49.246;9.106;2024-01-30T07:04:25;-0.50;99.90
19586;DHT22;9939;49.246;9.106;2024-01-30T07:06:52;-0.50;99.90
19586;DHT22;9939;49.246;9.106;2024-01-30T07:09:20;-0.40;99.90
19586;DHT22;9939;49.246;9.106;2024-01-30T07:11:46;-0.30;99.90
19586;DHT22;9939;49.246;9.106;2024-01-30T07:14:13;-0.30;99.90
19586;DHT22;9939;49.246;9.106;2024-01-30T07:16:40;-0.20;99.90
19586;DHT22;9939;49.246;9.106;2024-01-30T07:19:07;-0.20;99.90
19586;DHT22;9939;49.246;9.106;2024-01-30T07:21:36;-0.20;99.90
19586;DHT22;9939;49.246;9.106;2024-01-30T07:24:03;-0.10;99.90
19586;DHT22;9939;49.246;9.106;2024-01-30T07:26:29;-0.10;99.90
19586;DHT22;9939;49.246;9.106;2024-01-30T07:28:56;0.00;99.90
19586;DHT22;9939;49.246;9.106;2024-01-30T07:31:23;0.10;99.90
19586;DHT22;9939;49.246;9.106;2024-01-30T07:33:50;0.10;99.90
19586;DHT22;9939;49.246;9.106;2024-01-30T07:36:17;0.20;99.90
19586;DHT22;9939;49.246;9.106;2024-01-30T07:38:44;0.30;99.90
19586;DHT22;9939;49.246;9.106;2024-01-30T07:41:11;0.30;99.90
19586;DHT22;9939;49.246;9.106;2024-01-30T07:43:38;0.40;99.90
19586;DHT22;9939;49.246;9.106;2024-01-30T07:46:05;0.60;99.90
19586;DHT22;9939;49.246;9.106;2024-01-30T07:48:33;0.70;99.90
19586;DHT22;9939;49.246;9.106;2024-01-30T07:51:00;0.80;99.90
19586;DHT22;9939;49.246;9.106;2024-01-30T07:53:27;0.90;99.90
19586;DHT22;9939;49.246;9.106;2024-01-30T07:55:54;1.00;99.90
19586;DHT22;9939;49.246;9.106;2024-01-30T07:58:21;1.10;99.90
19586;DHT22;9939;49.246;9.106;2024-01-30T08:00:48;1.30;99.90
19586;DHT22;9939;49.246;9.106;2024-01-30T08:03:15;1.40;99.90
19586;DHT22;9939;49.246;9.106;2024-01-30T08:05:44;1.60;99.90
19586;DHT22;9939;49.246;9.106;2024-01-30T08:08:11;1.70;99.90
19586;DHT22;9939;49.246;9.106;2024-01-30T08:10:37;1.90;99.90
19586;DHT22;9939;49.246;9.106;2024-01-30T08:13:04;2.00;99.90
19586;DHT22;9939;49.246;9.106;2024-01-30T08:15:31;2.10;99.90
19586;DHT22;9939;49.246;9.106;2024-01-30T08:17:58;2.20;99.90
19586;DHT22;9939;49.246;9.106;2024-01-30T08:20:25;2.30;99.90
19586;DHT22;9939;49.246;9.106;2024-01-30T08:22:52;2.20;99.90
19586;DHT22;9939;49.246;9.106;2024-01-30T08:25:19;2.40;99.90
19586;DHT22;9939;49.246;9.106;2024-01-30T08:27:46;2.60;99.90
19586;DHT22;9939;49.246;9.106;2024-01-30T08:30:13;2.80;99.90
19586;DHT22;9939;49.246;9.106;2024-01-30T08:32:40;2.80;99.90
19586;DHT22;9939;49.246;9.106;2024-01-30T08:35:07;2.60;99.90
19586;DHT22;9939;49.246;9.106;2024-01-30T08:37:35;2.80;99.90
19586;DHT22;9939;49.246;9.106;2024-01-30T08:44:03;3.00;99.90
19586;DHT22;9939;49.246;9.106;2024-01-30T08:46:31;3.50;99.90
19586;DHT22;9939;49.246;9.106;2024-01-30T08:48:58;3.70;99.90
19586;DHT22;9939;49.246;9.106;2024-01-30T08:51:25;3.50;99.90
19586;DHT22;9939;49.246;9.106;2024-01-30T08:53:52;3.80;99.90
19586;DHT22;9939;49.246;9.106;2024-01-30T08:56:20;4.00;99.90
19586;DHT22;9939;49.246;9.106;2024-01-30T08:58:47;4.30;99.90
19586;DHT22;9939;49.246;9.106;2024-01-30T09:01:14;4.20;99.90
19586;DHT22;9939;49.246;9.106;2024-01-30T09:03:43;4.40;99.90
19586;DHT22;9939;49.246;9.106;2024-01-30T09:06:13;4.50;99.90
19586;DHT22;9939;49.246;9.106;2024-01-30T09:08:39;4.50;99.90
19586;DHT22;9939;49.246;9.106;2024-01-30T09:11:11;5.40;99.90
19586;DHT22;9939;49.246;9.106;2024-01-30T09:13:38;5.60;99.90
19586;DHT22;9939;49.246;9.106;2024-01-30T09:16:06;6.00;99.90
19586;DHT22;9939;49.246;9.106;2024-01-30T09:18:33;6.30;99.90
19586;DHT22;9939;49.246;9.106;2024-01-30T09:21:00;6.80;99.90
19586;DHT22;9939;49.246;9.106;2024-01-30T09:23:27;7.50;99.90
19586;DHT22;9939;49.246;9.106;2024-01-30T09:25:55;8.00;99.90
19586;DHT22;9939;49.246;9.106;2024-01-30T09:28:22;7.80;99.90
19586;DHT22;9939;49.246;9.106;2024-01-30T09:30:53;7.30;99.90
19586;DHT22;9939;49.246;9.106;2024-01-30T09:33:20;6.80;99.90
19586;DHT22;9939;49.246;9.106;2024-01-30T09:35:47;6.50;99.90
19586;DHT22;9939;49.246;9.106;2024-01-30T09:38:13;6.50;99.90
19586;DHT22;9939;49.246;9.106;2024-01-30T09:40:40;6.60;99.90
19586;DHT22;9939;49.246;9.106;2024-01-30T09:43:11;6.70;99.90
19586;DHT22;9939;49.246;9.106;2024-01-30T09:45:42;6.80;99.90
19586;DHT22;9939;49.246;9.106;2024-01-30T09:48:11;7.50;99.90
19586;DHT22;9939;49.246;9.106;2024-01-30T09:50:38;7.50;99.90
19586;DHT22;9939;49.246;9.106;2024-01-30T09:53:08;7.30;99.90
19586;DHT22;9939;49.246;9.106;2024-01-30T09:55:36;8.90;99.90
19586;DHT22;9939;49.246;9.106;2024-01-30T09:58:03;7.10;99.90
19586;DHT22;9939;49.246;9.106;2024-01-30T10:00:30;6.90;99.90
19586;DHT22;9939;49.246;9.106;2024-01-30T10:02:57;6.80;99.90
19586;DHT22;9939;49.246;9.106;2024-01-30T10:05:26;6.80;99.90
19586;DHT22;9939;49.246;9.106;2024-01-30T10:07:56;7.00;99.90
19586;DHT22;9939;49.246;9.106;2024-01-30T10:10:24;6.60;99.90
19586;DHT22;9939;49.246;9.106;2024-01-30T10:12:51;6.50;99.90
19586;DHT22;9939;49.246;9.106;2024-01-30T10:15:18;6.40;99.90
19586;DHT22;9939;49.246;9.106;2024-01-30T10:17:48;6.20;99.90
19586;DHT22;9939;49.246;9.106;2024-01-30T10:20:15;6.20;99.90
19586;DHT22;9939;49.246;9.106;2024-01-30T10:22:42;5.80;99.90
19586;DHT22;9939;49.246;9.106;2024-01-30T10:25:12;6.00;99.90
19586;DHT22;9939;49.246;9.106;2024-01-30T10:27:39;5.70;99.90
19586;DHT22;9939;49.246;9.106;2024-01-30T10:30:07;5.70;99.90
19586;DHT22;9939;49.246;9.106;2024-01-30T10:32:34;6.40;99.90
19586;DHT22;9939;49.246;9.106;2024-01-30T10:35:01;7.20;99.90
19586;DHT22;9939;49.246;9.106;2024-01-30T10:37:30;6.90;99.90
19586;DHT22;9939;49.246;9.106;2024-01-30T10:40:02;7.00;99.90
19586;DHT22;9939;49.246;9.106;2024-01-30T10:42:32;6.90;99.90
19586;DHT22;9939;49.246;9.106;2024-01-30T10:45:08;6.50;99.90
19586;DHT22;9939;49.246;9.106;2024-01-30T10:47:36;6.40;99.90
19586;DHT22;9939;49.246;9.106;2024-01-30T10:50:04;6.10;99.90
19586;DHT22;9939;49.246;9.106;2024-01-30T10:52:32;6.20;99.90
19586;DHT22;9939;49.246;9.106;2024-01-30T10:55:00;6.60;99.90
19586;DHT22;9939;49.246;9.106;2024-01-30T10:57:27;6.70;99.90
19586;DHT22;9939;49.246;9.106;2024-01-30T11:00:00;6.90;99.90
19586;DHT22;9939;49.246;9.106;2024-01-30T11:02:28;6.90;99.90
19586;DHT22;9939;49.246;9.106;2024-01-30T11:04:58;7.00;99.90
19586;DHT22;9939;49.246;9.106;2024-01-30T11:07:27;7.30;99.90
19586;DHT22;9939;49.246;9.106;2024-01-30T11:10:00;7.50;99.90
19586;DHT22;9939;49.246;9.106;2024-01-30T11:12:28;7.10;99.90
19586;DHT22;9939;49.246;9.106;2024-01-30T11:15:09;6.80;99.90
19586;DHT22;9939;49.246;9.106;2024-01-30T11:20:16;6.90;99.90
19586;DHT22;9939;49.246;9.106;2024-01-30T11:22:46;7.10;99.90
19586;DHT22;9939;49.246;9.106;2024-01-30T11:25:17;6.80;99.90
19586;DHT22;9939;49.246;9.106;2024-01-30T11:27:46;7.30;99.90
19586;DHT22;9939;49.246;9.106;2024-01-30T11:30:32;7.20;99.90
19586;DHT22;9939;49.246;9.106;2024-01-30T11:33:10;7.20;99.90
19586;DHT22;9939;49.246;9.106;2024-01-30T11:35:43;7.40;99.90
19586;DHT22;9939;49.246;9.106;2024-01-30T11:38:13;7.50;99.90
19586;DHT22;9939;49.246;9.106;2024-01-30T11:40:40;7.40;99.90
19586;DHT22;9939;49.246;9.106;2024-01-30T11:43:09;7.50;99.90
19586;DHT22;9939;49.246;9.106;2024-01-30T11:45:36;8.10;99.90
19586;DHT22;9939;49.246;9.106;2024-01-30T11:48:04;8.40;99.90
19586;DHT22;9939;49.246;9.106;2024-01-30T11:50:35;8.30;99.90
19586;DHT22;9939;49.246;9.106;2024-01-30T11:53:05;8.10;99.90
19586;DHT22;9939;49.246;9.106;2024-01-30T11:55:32;8.70;99.90
19586;DHT22;9939;49.246;9.106;2024-01-30T11:58:01;9.10;99.90
19586;DHT22;9939;49.246;9.106;2024-01-30T12:00:30;9.00;99.90
19586;DHT22;9939;49.246;9.106;2024-01-30T12:03:00;8.80;99.90
19586;DHT22;9939;49.246;9.106;2024-01-30T12:05:29;8.40;99.90
19586;DHT22;9939;49.246;9.106;2024-01-30T12:07:56;8.00;99.90
19586;DHT22;9939;49.246;9.106;2024-01-30T12:10:27;8.50;99.90
19586;DHT22;9939;49.246;9.106;2024-01-30T12:12:54;8.90;99.90
19586;DHT22;9939;49.246;9.106;2024-01-30T12:15:22;9.40;99.90
19586;DHT22;9939;49.246;9.106;2024-01-30T12:17:49;10.10;99.90
19586;DHT22;9939;49.246;9.106;2024-01-30T12:20:19;10.10;99.90
19586;DHT22;9939;49.246;9.106;2024-01-30T12:22:49;10.00;99.90
19586;DHT22;9939;49.246;9.106;2024-01-30T12:25:18;10.20;99.90
19586;DHT22;9939;49.246;9.106;2024-01-30T12:27:48;10.20;99.90
19586;DHT22;9939;49.246;9.106;2024-01-30T12:30:18;10.90;99.90
19586;DHT22;9939;49.246;9.106;2024-01-30T12:32:47;10.50;99.90
19586;DHT22;9939;49.246;9.106;2024-01-30T12:35:17;10.10;99.90
19586;DHT22;9939;49.246;9.106;2024-01-30T12:37:46;10.20;99.90
19586;DHT22;9939;49.246;9.106;2024-01-30T12:40:15;9.70;99.90
19586;DHT22;9939;49.246;9.106;2024-01-30T12:42:42;9.90;99.90
19586;DHT22;9939;49.246;9.106;2024-01-30T12:45:10;9.80;99.90
19586;DHT22;9939;49.246;9.106;2024-01-30T12:47:37;9.60;99.90
19586;DHT22;9939;49.246;9.106;2024-01-30T12:50:04;9.10;99.90
19586;DHT22;9939;49.246;9.106;2024-01-30T12:52:31;8.90;99.90
19586;DHT22;9939;49.246;9.106;2024-01-30T12:54:58;8.80;99.90
19586;DHT22;9939;49.246;9.106;2024-01-30T12:57:25;9.00;99.90
19586;DHT22;9939;49.246;9.106;2024-01-30T12:59:52;9.10;99.90
19586;DHT22;9939;49.246;9.106;2024-01-30T13:02:19;9.20;99.90
19586;DHT22;9939;49.246;9.106;2024-01-30T13:04:46;9.20;99.90
19586;DHT22;9939;49.246;9.106;2024-01-30T13:07:16;8.70;99.90
19586;DHT22;9939;49.246;9.106;2024-01-30T13:09:43;8.40;99.90
19586;DHT22;9939;49.246;9.106;2024-01-30T13:12:10;8.60;99.90
19586;DHT22;9939;49.246;9.106;2024-01-30T13:14:37;8.80;99.90
19586;DHT22;9939;49.246;9.106;2024-01-30T13:17:04;8.80;99.90
19586;DHT22;9939;49.246;9.106;2024-01-30T13:19:31;8.70;99.90
19586;DHT22;9939;49.246;9.106;2024-01-30T13:21:58;8.60;99.90
19586;DHT22;9939;49.246;9.106;2024-01-30T13:24:25;8.60;99.90
19586;DHT22;9939;49.246;9.106;2024-01-30T13:26:52;8.90;99.90
19586;DHT22;9939;49.246;9.106;2024-01-30T13:29:19;9.20;99.90
19586;DHT22;9939;49.246;9.106;2024-01-30T13:31:46;9.60;99.90
19586;DHT22;9939;49.246;9.106;2024-01-30T13:34:13;9.80;99.90
19586;DHT22;9939;49.246;9.106;2024-01-30T13:36:43;10.10;99.90
19586;DHT22;9939;49.246;9.106;2024-01-30T13:39:11;10.00;99.90
19586;DHT22;9939;49.246;9.106;2024-01-30T13:41:39;10.00;99.90
19586;DHT22;9939;49.246;9.106;2024-01-30T13:44:06;9.80;99.90
19586;DHT22;9939;49.246;9.106;2024-01-30T13:46:33;9.80;99.90
19586;DHT22;9939;49.246;9.106;2024-01-30T13:48:59;10.00;99.90
19586;DHT22;9939;49.246;9.106;2024-01-30T13:51:27;10.00;99.90
19586;DHT22;9939;49.246;9.106;2024-01-30T13:53:54;10.20;99.90
19586;DHT22;9939;49.246;9.106;2024-01-30T13:56:21;10.40;99.90
19586;DHT22;9939;49.246;9.106;2024-01-30T13:58:49;10.50;99.90
19586;DHT22;9939;49.246;9.106;2024-01-30T14:01:16;10.60;99.90
19586;DHT22;9939;49.246;9.106;2024-01-30T14:03:44;10.60;99.90
19586;DHT22;9939;49.246;9.106;2024-01-30T14:06:12;10.50;99.90
19586;DHT22;9939;49.246;9.106;2024-01-30T14:08:39;10.50;99.90
19586;DHT22;9939;49.246;9.106;2024-01-30T14:11:07;10.50;99.90
19586;DHT22;9939;49.246;9.106;2024-01-30T14:13:33;10.40;99.90
19586;DHT22;9939;49.246;9.106;2024-01-30T14:16:01;10.40;99.90
19586;DHT22;9939;49.246;9.106;2024-01-30T14:18:30;10.40;99.90
19586;DHT22;9939;49.246;9.106;2024-01-30T14:20:57;10.40;99.90
19586;DHT22;9939;49.246;9.106;2024-01-30T14:23:24;10.50;99.90
19586;DHT22;9939;49.246;9.106;2024-01-30T14:25:51;10.50;99.90
19586;DHT22;9939;49.246;9.106;2024-01-30T14:28:18;9.80;99.90
19586;DHT22;9939;49.246;9.106;2024-01-30T14:30:46;9.30;99.90
19586;DHT22;9939;49.246;9.106;2024-01-30T14:33:14;9.10;99.90
19586;DHT22;9939;49.246;9.106;2024-01-30T14:35:41;9.10;99.90
19586;DHT22;9939;49.246;9.106;2024-01-30T14:38:08;9.30;99.90
19586;DHT22;9939;49.246;9.106;2024-01-30T14:40:35;9.40;99.90
19586;DHT22;9939;49.246;9.106;2024-01-30T14:43:02;9.70;99.90
19586;DHT22;9939;49.246;9.106;2024-01-30T14:45:30;9.50;99.90
19586;DHT22;9939;49.246;9.106;2024-01-30T14:47:59;9.50;99.90
19586;DHT22;9939;49.246;9.106;2024-01-30T14:50:26;9.60;99.90
19586;DHT22;9939;49.246;9.106;2024-01-30T14:52:55;9.40;99.90
19586;DHT22;9939;49.246;9.106;2024-01-30T14:55:22;9.20;99.90
19586;DHT22;9939;49.246;9.106;2024-01-30T14:57:48;9.00;99.90
19586;DHT22;9939;49.246;9.106;2024-01-30T15:00:16;9.20;99.90
19586;DHT22;9939;49.246;9.106;2024-01-30T15:02:43;9.10;99.90
19586;DHT22;9939;49.246;9.106;2024-01-30T15:05:11;9.00;99.90
19586;DHT22;9939;49.246;9.106;2024-01-30T15:07:39;8.90;99.90
19586;DHT22;9939;49.246;9.106;2024-01-30T15:10:08;8.70;99.90
19586;DHT22;9939;49.246;9.106;2024-01-30T15:12:37;8.60;99.90
19586;DHT22;9939;49.246;9.106;2024-01-30T15:15:06;8.60;99.90
19586;DHT22;9939;49.246;9.106;2024-01-30T15:17:34;8.80;99.90
19586;DHT22;9939;49.246;9.106;2024-01-30T15:20:01;8.70;99.90
19586;DHT22;9939;49.246;9.106;2024-01-30T15:22:28;8.60;99.90
19586;DHT22;9939;49.246;9.106;2024-01-30T15:24:55;8.40;99.90
19586;DHT22;9939;49.246;9.106;2024-01-30T15:27:22;8.40;99.90
19586;DHT22;9939;49.246;9.106;2024-01-30T15:29:51;8.30;99.90
19586;DHT22;9939;49.246;9.106;2024-01-30T15:32:18;8.20;99.90
19586;DHT22;9939;49.246;9.106;2024-01-30T15:34:45;8.20;99.90
19586;DHT22;9939;49.246;9.106;2024-01-30T15:37:12;8.10;99.90
19586;DHT22;9939;49.246;9.106;2024-01-30T15:39:39;8.00;99.90
19586;DHT22;9939;49.246;9.106;2024-01-30T15:42:06;7.80;99.90
19586;DHT22;9939;49.246;9.106;2024-01-30T15:44:33;7.60;99.90
19586;DHT22;9939;49.246;9.106;2024-01-30T15:47:01;7.50;99.90
19586;DHT22;9939;49.246;9.106;2024-01-30T15:49:27;7.40;99.90
19586;DHT22;9939;49.246;9.106;2024-01-30T15:51:54;7.40;99.90
19586;DHT22;9939;49.246;9.106;2024-01-30T15:54:21;7.20;99.90
19586;DHT22;9939;49.246;9.106;2024-01-30T15:56:49;7.10;99.90
19586;DHT22;9939;49.246;9.106;2024-01-30T15:59:16;7.00;99.90
19586;DHT22;9939;49.246;9.106;2024-01-30T16:01:42;6.90;99.90
19586;DHT22;9939;49.246;9.106;2024-01-30T16:04:15;6.90;99.90
19586;DHT22;9939;49.246;9.106;2024-01-30T16:06:42;6.80;99.90